Time;durP1;ratioP1;P1;durP2;ratioP2;P2;SDS_P1;SDS_P2;PMS_P1;PMS_P2;Temp;Humidity;BMP_temperature;BMP_pressure;BME280_temperature;BME280_humidity;BME280_pressure;Samples;Min_cycle;Max_cycle;Signal;HPM_P1;HPM_P2
2022/03/13 00:00:27;;;;;;;4.73;1.93;;;10.00;99.90;;;;;;5054902;28;20593;-73
2022/03/13 00:02:55;;;;;;;6.80;2.63;;;9.90;99.90;;;;;;5049661;28;20207;-75
2022/03/13 00:05:22;;;;;;;2.80;1.63;;;9.90;99.90;;;;;;5054036;28;20207;-73
2022/03/13 00:07:51;;;;;;;6.00;2.20;;;9.90;99.90;;;;;;5054866;28;20214;-74
2022/03/13 00:10:20;;;;;;;4.40;1.70;;;9.90;99.90;;;;;;5055099;28;20241;-74
2022/03/13 00:12:48;;;;;;;3.57;2.13;;;10.00;99.90;;;;;;5055894;28;20569;-73
2022/03/13 00:15:16;;;;;;;6.87;3.17;;;10.00;99.90;;;;;;5055033;28;20203;-73
2022/03/13 00:17:44;;;;;;;5.57;2.20;;;10.00;99.90;;;;;;5053945;28;20203;-72
2022/03/13 00:20:12;;;;;;;6.33;2.63;;;10.00;99.90;;;;;;5053785;28;20667;-73
2022/03/13 00:22:40;;;;;;;4.93;2.03;;;10.00;99.90;;;;;;5053714;28;20231;-74
2022/03/13 00:25:10;;;;;;;6.73;2.50;;;10.00;99.90;;;;;;5053946;28;20203;-71
2022/03/13 00:27:37;;;;;;;3.87;2.30;;;10.00;99.90;;;;;;5053671;28;20213;-78
2022/03/13 00:30:07;;;;;;;3.40;1.40;;;10.00;99.90;;;;;;5053743;28;20230;-72
2022/03/13 00:32:34;;;;;;;4.20;2.00;;;10.00;99.90;;;;;;5053540;28;20259;-75
2022/03/13 00:35:02;;;;;;;5.67;2.30;;;10.00;99.90;;;;;;5053481;28;20260;-73
2022/03/13 00:37:29;;;;;;;4.27;2.17;;;10.00;99.90;;;;;;5053119;28;20249;-73
2022/03/13 00:39:56;;;;;;;7.07;3.03;;;10.10;99.90;;;;;;5053767;28;20207;-76
2022/03/13 00:42:24;;;;;;;3.83;2.67;;;10.10;99.90;;;;;;5053298;28;20257;-76
2022/03/13 00:44:51;;;;;;;2.70;1.90;;;10.10;99.90;;;;;;5053625;28;20546;-75
2022/03/13 00:47:21;;;;;;;3.43;1.80;;;10.00;99.90;;;;;;5053133;28;20252;-73
2022/03/13 00:49:48;;;;;;;7.07;4.03;;;10.00;99.90;;;;;;5053670;28;20284;-74
2022/03/13 00:52:15;;;;;;;2.37;1.60;;;10.10;99.90;;;;;;5053871;28;20252;-72
2022/03/13 00:54:42;;;;;;;4.90;2.20;;;10.10;99.90;;;;;;5053148;28;20253;-79
2022/03/13 00:57:10;;;;;;;4.80;1.80;;;10.10;99.90;;;;;;5053495;28;20207;-81
2022/03/13 00:59:37;;;;;;;3.73;1.73;;;10.10;99.90;;;;;;5052853;28;20207;-73
2022/03/13 01:02:04;;;;;;;2.87;1.70;;;10.20;99.90;;;;;;5053011;28;20206;-74
2022/03/13 01:04:33;;;;;;;2.03;1.17;;;10.10;99.90;;;;;;5052957;28;20203;-77
2022/03/13 01:07:00;;;;;;;3.80;1.77;;;10.20;99.90;;;;;;5053410;28;20643;-78
2022/03/13 01:09:27;;;;;;;8.20;2.10;;;10.20;99.90;;;;;;5052533;28;20206;-74
2022/03/13 01:11:54;;;;;;;5.60;2.13;;;10.20;99.90;;;;;;5053086;28;20206;-76
2022/03/13 01:14:22;;;;;;;2.17;1.97;;;10.20;99.90;;;;;;5052334;28;20545;-76
2022/03/13 01:16:49;;;;;;;3.27;2.10;;;10.20;99.90;;;;;;5052698;28;20686;-74
2022/03/13 01:19:16;;;;;;;5.10;1.73;;;10.20;99.90;;;;;;5053219;28;20566;-79
2022/03/13 01:21:44;;;;;;;2.57;1.80;;;10.20;99.90;;;;;;5052573;28;20203;-74
2022/03/13 01:24:30;;;;;;;6.97;1.93;;;10.10;99.90;;;;;;5052827;28;20666;-78
2022/03/13 01:27:02;;;;;;;2.87;1.80;;;10.20;99.90;;;;;;5053195;28;20213;-76
2022/03/13 01:29:30;;;;;;;7.63;2.40;;;10.20;99.90;;;;;;5052115;28;20285;-75
2022/03/13 01:31:58;;;;;;;4.30;2.77;;;10.20;99.90;;;;;;5052603;28;20213;-75
2022/03/13 01:34:44;;;;;;;4.07;1.63;;;10.20;99.90;;;;;;5052434;28;20210;-76
2022/03/13 01:37:26;;;;;;;3.87;1.90;;;10.20;99.90;;;;;;5052410;28;20206;-74
2022/03/13 01:39:53;;;;;;;6.87;1.50;;;10.20;99.90;;;;;;5052422;28;20210;-75
2022/03/13 01:42:20;;;;;;;4.57;2.17;;;10.30;99.90;;;;;;5052279;28;20252;-75
2022/03/13 01:44:47;;;;;;;3.33;1.50;;;10.30;99.90;;;;;;5052736;28;20609;-74
2022/03/13 01:47:14;;;;;;;3.20;1.70;;;10.30;99.90;;;;;;5052452;28;20202;-75
2022/03/13 01:49:42;;;;;;;3.50;2.73;;;10.40;99.90;;;;;;5051758;28;20677;-73
2022/03/13 01:52:10;;;;;;;4.60;1.47;;;10.40;99.90;;;;;;5052507;28;20207;-74
2022/03/13 01:54:40;;;;;;;3.10;1.93;;;10.40;99.90;;;;;;5052043;28;20642;-74
2022/03/13 01:57:07;;;;;;;4.83;2.77;;;10.40;99.90;;;;;;5052563;28;20245;-75
2022/03/13 01:59:34;;;;;;;1.47;1.37;;;10.50;99.90;;;;;;5051205;28;20198;-73
2022/03/13 02:02:00;;;;;;;2.60;1.30;;;10.50;99.90;;;;;;5051885;28;20264;-76
2022/03/13 02:04:30;;;;;;;3.40;1.53;;;10.60;99.90;;;;;;5051422;28;20619;-75
2022/03/13 02:06:58;;;;;;;1.70;1.60;;;10.50;99.90;;;;;;5052239;28;20207;-75
2022/03/13 02:09:26;;;;;;;1.83;1.23;;;10.60;99.90;;;;;;5051348;28;20578;-74
2022/03/13 02:11:55;;;;;;;1.67;1.47;;;10.60;99.90;;;;;;5051820;28;20242;-77
2022/03/13 02:14:23;;;;;;;3.07;1.40;;;10.70;99.90;;;;;;5051388;28;20203;-74
2022/03/13 02:16:52;;;;;;;2.43;1.60;;;10.70;99.90;;;;;;5051732;28;20203;-75
2022/03/13 02:19:19;;;;;;;2.10;0.90;;;10.70;99.90;;;;;;5051733;28;20720;-74
2022/03/13 02:21:49;;;;;;;2.60;2.03;;;10.70;99.90;;;;;;5052168;28;20268;-74
2022/03/13 02:24:21;;;;;;;2.20;1.83;;;10.60;99.90;;;;;;5052011;28;20253;-75
2022/03/13 02:26:57;;;;;;;1.70;1.50;;;10.60;99.90;;;;;;5052121;28;20202;-73
2022/03/13 02:29:24;;;;;;;3.30;1.87;;;10.60;99.90;;;;;;5050873;28;20198;-74
2022/03/13 02:31:51;;;;;;;3.23;1.60;;;10.60;99.90;;;;;;5051784;28;20301;-75
2022/03/13 02:34:19;;;;;;;5.93;2.43;;;10.60;99.90;;;;;;5051774;28;20207;-75
2022/03/13 02:37:00;;;;;;;4.47;1.97;;;10.60;99.90;;;;;;5051663;28;20214;-75
2022/03/13 02:39:29;;;;;;;3.03;1.80;;;10.60;99.90;;;;;;5051061;28;20293;-74
2022/03/13 02:41:56;;;;;;;3.03;2.20;;;10.50;99.90;;;;;;5051038;28;20294;-75
2022/03/13 02:44:23;;;;;;;5.13;1.57;;;10.50;99.90;;;;;;5050863;28;20209;-75
2022/03/13 02:46:59;;;;;;;4.70;2.00;;;10.50;99.90;;;;;;5051269;28;20198;-74
2022/03/13 02:49:28;;;;;;;5.00;1.30;;;10.60;99.90;;;;;;5050835;28;20199;-82
2022/03/13 02:51:58;;;;;;;2.50;1.97;;;10.60;99.90;;;;;;5051030;28;20707;-75
2022/03/13 02:54:26;;;;;;;3.37;2.07;;;10.60;99.90;;;;;;5050523;28;20663;-73
2022/03/13 02:56:55;;;;;;;2.40;2.17;;;10.60;99.90;;;;;;5051226;28;20253;-74
2022/03/13 02:59:22;;;;;;;1.93;1.53;;;10.70;99.90;;;;;;5050537;28;20737;-74
2022/03/13 03:01:49;;;;;;;2.83;1.40;;;10.60;99.90;;;;;;5051180;28;20571;-74
2022/03/13 03:04:17;;;;;;;2.90;1.97;;;10.60;99.90;;;;;;5051151;28;20248;-83
2022/03/13 03:06:54;;;;;;;3.23;1.47;;;10.60;99.90;;;;;;5050812;28;20281;-79
2022/03/13 03:09:21;;;;;;;3.17;1.57;;;10.70;99.90;;;;;;5050547;28;20207;-78
2022/03/13 03:11:48;;;;;;;3.40;1.63;;;10.70;99.90;;;;;;5050263;28;20234;-73
2022/03/13 03:14:18;;;;;;;2.63;2.10;;;10.70;99.90;;;;;;5050805;28;20667;-73
2022/03/13 03:16:46;;;;;;;2.20;1.43;;;10.80;99.90;;;;;;5057164;28;20206;-76
2022/03/13 03:19:13;;;;;;;2.17;1.00;;;10.80;99.90;;;;;;5050701;28;20616;-73
2022/03/13 03:21:40;;;;;;;1.47;1.03;;;10.70;99.90;;;;;;5050312;28;20214;-74
2022/03/13 03:24:18;;;;;;;1.27;1.17;;;10.80;99.90;;;;;;5050968;28;20637;-74
2022/03/13 03:26:46;;;;;;;3.50;1.00;;;10.70;99.90;;;;;;5051248;28;20209;-74
2022/03/13 03:29:13;;;;;;;1.97;1.00;;;10.80;99.90;;;;;;5050770;28;20294;-74
2022/03/13 03:31:43;;;;;;;3.23;1.50;;;10.70;99.90;;;;;;5050150;28;20238;-74
2022/03/13 03:34:12;;;;;;;2.10;1.10;;;10.80;99.90;;;;;;5050564;28;20256;-72
2022/03/13 03:36:44;;;;;;;2.60;1.10;;;10.80;99.90;;;;;;5050061;28;20642;-76
2022/03/13 03:39:12;;;;;;;2.23;1.93;;;10.80;99.90;;;;;;5050593;28;20211;-73
2022/03/13 03:41:42;;;;;;;1.53;1.20;;;10.80;99.90;;;;;;5050023;28;20248;-73
2022/03/13 03:44:09;;;;;;;2.03;1.10;;;10.80;99.90;;;;;;5050474;28;20203;-74
2022/03/13 03:46:37;;;;;;;1.67;0.90;;;10.80;99.90;;;;;;5050121;28;20203;-76
2022/03/13 03:49:05;;;;;;;2.27;1.10;;;10.90;99.90;;;;;;5050731;28;20203;-74
2022/03/13 03:51:32;;;;;;;2.17;1.47;;;10.80;99.90;;;;;;5050084;28;20268;-74
2022/03/13 03:53:59;;;;;;;1.83;1.20;;;10.80;99.90;;;;;;5050299;28;20216;-73
2022/03/13 03:56:26;;;;;;;2.70;0.90;;;10.80;99.90;;;;;;5049895;28;20202;-79
2022/03/13 03:58:53;;;;;;;2.03;1.30;;;10.70;99.90;;;;;;5050390;28;20207;-74
2022/03/13 04:01:20;;;;;;;1.80;0.77;;;10.70;99.90;;;;;;5050035;28;20206;-73
2022/03/13 04:03:47;;;;;;;1.23;1.13;;;10.80;99.90;;;;;;5050900;28;20260;-76
2022/03/13 04:06:16;;;;;;;2.27;0.97;;;10.80;99.90;;;;;;5050515;28;20215;-74
2022/03/13 04:08:43;;;;;;;2.00;1.23;;;10.80;99.90;;;;;;5050341;28;20199;-73
2022/03/13 04:11:11;;;;;;;1.77;0.93;;;10.80;99.90;;;;;;5050140;28;20238;-75
2022/03/13 04:13:38;;;;;;;3.13;1.37;;;10.80;99.90;;;;;;5049906;28;20203;-73
2022/03/13 04:16:07;;;;;;;3.00;1.03;;;10.80;99.90;;;;;;5050251;28;20256;-84
2022/03/13 04:18:35;;;;;;;0.80;0.63;;;10.70;99.90;;;;;;5050022;28;20572;-74
2022/03/13 04:21:03;;;;;;;3.23;1.40;;;10.80;99.90;;;;;;5050231;28;20204;-86
2022/03/13 04:23:32;;;;;;;2.27;0.87;;;10.70;99.90;;;;;;5053189;28;20239;-78
2022/03/13 04:25:59;;;;;;;3.20;1.17;;;10.70;99.90;;;;;;5053744;28;20639;-73
2022/03/13 04:28:26;;;;;;;1.33;1.10;;;10.70;99.90;;;;;;5053591;28;20210;-74
2022/03/13 04:30:53;;;;;;;2.87;1.20;;;10.70;99.90;;;;;;5053958;28;20239;-73
2022/03/13 04:33:21;;;;;;;3.37;1.30;;;10.60;99.90;;;;;;5053631;28;20203;-73
2022/03/13 04:35:49;;;;;;;3.67;1.10;;;10.60;99.90;;;;;;5053803;28;20576;-75
2022/03/13 04:38:16;;;;;;;3.00;1.10;;;10.60;99.90;;;;;;5054030;28;20204;-74
2022/03/13 04:40:44;;;;;;;6.27;1.97;;;10.60;99.90;;;;;;5052918;28;20246;-73
2022/03/13 04:43:11;;;;;;;1.77;1.20;;;10.60;99.90;;;;;;5053706;28;20199;-72
2022/03/13 04:45:38;;;;;;;2.07;1.03;;;10.60;99.90;;;;;;5053541;28;20211;-76
2022/03/13 04:48:06;;;;;;;2.80;1.50;;;10.60;99.90;;;;;;5053533;28;20199;-74
2022/03/13 04:50:33;;;;;;;2.33;1.30;;;10.50;99.90;;;;;;5053017;28;20265;-76
2022/03/13 04:53:00;;;;;;;3.70;1.40;;;10.50;99.90;;;;;;5053239;28;20281;-74
2022/03/13 04:55:27;;;;;;;1.83;1.57;;;10.50;99.90;;;;;;5052694;28;20250;-75
2022/03/13 04:57:56;;;;;;;3.17;1.43;;;10.50;99.90;;;;;;5053275;28;20207;-75
2022/03/13 05:00:23;;;;;;;2.13;1.40;;;10.40;99.90;;;;;;5053178;28;20207;-77
2022/03/13 05:02:51;;;;;;;2.43;1.67;;;10.40;99.90;;;;;;5053223;28;20211;-76
2022/03/13 05:05:19;;;;;;;3.17;1.47;;;10.50;99.90;;;;;;5053001;28;20697;-74
2022/03/13 05:07:46;;;;;;;5.13;2.37;;;10.40;99.90;;;;;;5053352;28;20272;-75
2022/03/13 05:10:13;;;;;;;6.50;2.27;;;10.50;99.90;;;;;;5052992;28;20645;-74
2022/03/13 05:12:40;;;;;;;3.17;1.80;;;10.40;99.90;;;;;;5052750;28;20292;-75
2022/03/13 05:15:09;;;;;;;7.10;1.83;;;10.40;99.90;;;;;;5053034;28;20230;-75
2022/03/13 05:17:36;;;;;;;4.90;2.50;;;10.40;99.90;;;;;;5052358;28;20203;-79
2022/03/13 05:20:04;;;;;;;4.07;1.83;;;10.40;99.90;;;;;;5052935;28;20261;-80
2022/03/13 05:22:31;;;;;;;2.37;1.67;;;10.40;99.90;;;;;;5052288;28;20659;-75
2022/03/13 05:24:58;;;;;;;4.87;2.43;;;10.50;99.90;;;;;;5052562;28;20597;-79
2022/03/13 05:27:25;;;;;;;3.13;1.50;;;10.50;99.90;;;;;;5052282;28;20615;-76
2022/03/13 05:29:52;;;;;;;6.10;2.20;;;10.50;99.90;;;;;;5052591;28;20237;-71
2022/03/13 05:32:20;;;;;;;3.60;1.80;;;10.50;99.90;;;;;;5052523;28;20238;-75
2022/03/13 05:34:47;;;;;;;3.53;2.10;;;10.50;99.90;;;;;;5051859;28;20206;-78
2022/03/13 05:37:14;;;;;;;5.57;2.93;;;10.50;99.90;;;;;;5052669;28;20616;-76
2022/03/13 05:39:41;;;;;;;2.97;2.00;;;10.60;99.90;;;;;;5052071;28;20256;-74
2022/03/13 05:42:08;;;;;;;5.53;1.90;;;10.60;99.90;;;;;;5052374;28;20210;-77
2022/03/13 05:44:36;;;;;;;3.77;1.90;;;10.60;99.90;;;;;;5052172;28;20256;-76
2022/03/13 05:47:04;;;;;;;2.17;1.47;;;10.60;99.90;;;;;;5052253;28;20670;-74
2022/03/13 05:49:33;;;;;;;4.93;2.93;;;10.50;99.90;;;;;;5051990;28;20665;-75
2022/03/13 05:52:00;;;;;;;3.37;2.03;;;10.60;99.90;;;;;;5051979;28;20234;-74
2022/03/13 05:54:27;;;;;;;4.67;1.80;;;10.60;99.90;;;;;;5051649;28;20203;-74
2022/03/13 05:56:54;;;;;;;2.07;1.53;;;10.60;99.90;;;;;;5051734;28;20206;-74
2022/03/13 05:59:25;;;;;;;6.23;2.43;;;10.60;99.90;;;;;;5051490;28;20210;-73
2022/03/13 06:01:52;;;;;;;9.60;2.00;;;10.60;99.90;;;;;;5051509;28;20202;-74
2022/03/13 06:04:20;;;;;;;3.60;1.87;;;10.60;99.90;;;;;;5051949;28;20631;-75
2022/03/13 06:06:49;;;;;;;4.60;2.30;;;10.60;99.90;;;;;;5052068;28;20203;-75
2022/03/13 06:09:16;;;;;;;3.00;1.80;;;10.70;99.90;;;;;;5052338;28;20199;-74
2022/03/13 06:11:43;;;;;;;5.77;1.43;;;10.70;99.90;;;;;;5051203;28;20230;-74
2022/03/13 06:14:09;;;;;;;2.63;1.80;;;10.60;99.90;;;;;;5051810;28;20210;-74
2022/03/13 06:16:38;;;;;;;2.53;1.63;;;10.70;99.90;;;;;;5051258;28;20205;-74
2022/03/13 06:19:05;;;;;;;3.40;1.53;;;10.70;99.90;;;;;;5051822;28;20290;-73
2022/03/13 06:21:32;;;;;;;5.23;1.70;;;10.70;99.90;;;;;;5051237;28;20210;-75
2022/03/13 06:24:00;;;;;;;2.03;1.40;;;10.70;99.90;;;;;;5051653;28;20203;-72
2022/03/13 06:26:27;;;;;;;5.17;1.50;;;10.70;99.90;;;;;;5051263;28;20234;-73
2022/03/13 06:28:54;;;;;;;2.53;1.60;;;10.80;99.90;;;;;;5051442;28;20207;-75
2022/03/13 06:31:21;;;;;;;3.50;2.57;;;10.80;99.90;;;;;;5050921;28;20259;-76
2022/03/13 06:33:48;;;;;;;4.03;2.27;;;10.80;99.90;;;;;;5051413;28;20202;-74
2022/03/13 06:36:15;;;;;;;4.17;1.67;;;10.80;99.90;;;;;;5051274;28;20223;-75
2022/03/13 06:38:42;;;;;;;3.10;1.73;;;10.80;99.90;;;;;;5050972;28;20253;-71
2022/03/13 06:41:11;;;;;;;3.80;1.90;;;10.80;99.90;;;;;;5051225;28;20198;-74
2022/03/13 06:43:38;;;;;;;6.03;1.50;;;10.90;99.90;;;;;;5050831;28;20241;-73
2022/03/13 06:46:05;;;;;;;2.63;1.93;;;10.90;99.90;;;;;;5051212;28;20209;-74
2022/03/13 06:48:32;;;;;;;2.63;1.40;;;11.00;99.90;;;;;;5050912;28;20210;-73
2022/03/13 06:50:59;;;;;;;2.53;1.30;;;10.90;99.90;;;;;;5050940;28;20211;-74
2022/03/13 06:53:27;;;;;;;5.07;3.77;;;11.00;99.90;;;;;;5050776;28;20258;-75
2022/03/13 06:55:54;;;;;;;3.93;1.67;;;11.00;99.90;;;;;;5051120;28;20203;-73
2022/03/13 06:58:23;;;;;;;3.37;1.33;;;11.00;99.90;;;;;;5050709;28;20210;-75
2022/03/13 07:00:51;;;;;;;6.80;1.63;;;11.10;99.90;;;;;;5051155;28;20328;-72
2022/03/13 07:03:18;;;;;;;4.07;1.43;;;11.10;99.90;;;;;;5051178;28;20238;-75
2022/03/13 07:05:45;;;;;;;3.47;2.23;;;11.10;99.90;;;;;;5050913;28;20207;-74
2022/03/13 07:08:12;;;;;;;3.00;1.57;;;11.10;99.90;;;;;;5050917;28;20662;-73
2022/03/13 07:10:39;;;;;;;3.93;1.83;;;11.10;99.90;;;;;;5050375;28;20622;-74
2022/03/13 07:13:06;;;;;;;3.27;2.47;;;11.10;99.90;;;;;;5050717;28;20274;-73
2022/03/13 07:15:36;;;;;;;5.07;2.17;;;11.20;99.90;;;;;;5050238;28;20211;-73
2022/03/13 07:18:03;;;;;;;1.70;1.53;;;11.20;99.90;;;;;;5050760;28;20242;-74
2022/03/13 07:20:30;;;;;;;3.43;2.43;;;11.20;99.90;;;;;;5050254;28;20352;-75
2022/03/13 07:22:57;;;;;;;1.87;1.20;;;11.20;99.90;;;;;;5050759;28;20203;-74
2022/03/13 07:25:24;;;;;;;4.93;1.67;;;11.20;99.90;;;;;;5050293;28;20705;-73
2022/03/13 07:27:51;;;;;;;2.17;1.37;;;11.30;99.90;;;;;;5050906;28;20207;-73
2022/03/13 07:30:18;;;;;;;3.67;1.50;;;11.30;99.90;;;;;;5050947;28;20203;-74
2022/03/13 07:32:47;;;;;;;7.43;1.70;;;11.40;99.90;;;;;;5051071;28;20229;-74
2022/03/13 07:35:14;;;;;;;7.47;2.23;;;11.40;99.90;;;;;;5050693;28;20210;-74
2022/03/13 07:37:41;;;;;;;3.10;1.70;;;11.40;99.90;;;;;;5049989;28;20214;-73
2022/03/13 07:40:10;;;;;;;2.73;1.87;;;11.40;99.90;;;;;;5050908;28;20215;-74
2022/03/13 07:42:37;;;;;;;5.60;1.73;;;11.50;99.90;;;;;;5050182;28;20202;-76
2022/03/13 07:45:05;;;;;;;4.27;2.27;;;11.50;99.90;;;;;;5050605;28;20329;-73
2022/03/13 07:47:32;;;;;;;2.47;2.10;;;11.60;99.90;;;;;;5050132;28;20199;-74
2022/03/13 07:50:00;;;;;;;3.97;2.10;;;11.60;99.90;;;;;;5050180;28;20383;-74
2022/03/13 07:52:27;;;;;;;5.13;2.43;;;11.70;99.90;;;;;;5049923;28;20231;-74
2022/03/13 07:54:54;;;;;;;4.43;3.10;;;11.60;99.90;;;;;;5050377;28;20562;-73
2022/03/13 07:57:21;;;;;;;4.57;2.77;;;11.60;99.90;;;;;;5051550;28;20260;-73
2022/03/13 07:59:48;;;;;;;4.73;2.50;;;11.60;99.90;;;;;;5054593;28;20663;-73
2022/03/13 08:02:15;;;;;;;6.27;2.97;;;11.60;99.90;;;;;;5054410;28;20253;-74
2022/03/13 08:04:42;;;;;;;7.30;2.80;;;11.60;99.90;;;;;;5053672;28;20203;-74
2022/03/13 08:07:10;;;;;;;3.33;2.37;;;11.60;99.90;;;;;;5054150;28;20199;-75
2022/03/13 08:09:39;;;;;;;5.37;2.10;;;11.70;99.90;;;;;;5053781;28;20246;-74
2022/03/13 08:12:07;;;;;;;4.27;2.07;;;11.70;99.90;;;;;;5054240;28;20237;-75
2022/03/13 08:14:34;;;;;;;5.77;1.90;;;11.70;99.90;;;;;;5053582;28;20203;-74
2022/03/13 08:17:01;;;;;;;5.50;1.77;;;11.80;99.90;;;;;;5053950;28;20282;-74
2022/03/13 08:19:28;;;;;;;6.50;2.10;;;11.80;99.90;;;;;;5053505;28;20249;-74
2022/03/13 08:21:55;;;;;;;6.27;2.50;;;11.70;99.90;;;;;;5053902;28;20210;-73
2022/03/13 08:24:24;;;;;;;3.53;2.00;;;11.80;99.90;;;;;;5053601;28;20202;-74
2022/03/13 08:26:51;;;;;;;5.47;2.50;;;11.80;99.90;;;;;;5053817;28;20235;-73
2022/03/13 08:29:18;;;;;;;2.57;2.27;;;11.80;99.90;;;;;;5054124;28;20203;-73
2022/03/13 08:31:45;;;;;;;3.60;1.80;;;11.80;99.90;;;;;;5053706;28;20203;-74
2022/03/13 08:34:12;;;;;;;4.23;1.67;;;11.80;99.90;;;;;;5053720;28;20256;-75
2022/03/13 08:36:40;;;;;;;5.20;2.77;;;11.80;99.90;;;;;;5053267;28;20211;-75
2022/03/13 08:39:08;;;;;;;3.37;2.23;;;11.70;99.90;;;;;;5053634;28;20203;-74
2022/03/13 08:41:37;;;;;;;4.60;2.40;;;11.70;99.90;;;;;;5053299;28;20272;-74
2022/03/13 08:44:05;;;;;;;2.70;2.37;;;11.70;99.90;;;;;;5053506;28;20694;-74
2022/03/13 08:46:32;;;;;;;4.90;2.20;;;11.60;99.90;;;;;;5052885;28;20237;-75
2022/03/13 08:48:59;;;;;;;3.40;2.33;;;11.60;99.90;;;;;;5053635;28;20203;-75
2022/03/13 08:51:27;;;;;;;5.97;2.00;;;11.60;99.90;;;;;;5053026;28;20260;-78
2022/03/13 08:53:56;;;;;;;4.27;2.37;;;11.50;99.90;;;;;;5053314;28;20238;-73
2022/03/13 08:56:23;;;;;;;2.93;1.47;;;11.00;1.00;;;;;;5052946;28;20210;-74
2022/03/13 08:58:53;;;;;;;6.00;1.37;;;10.60;99.90;;;;;;5053410;28;20203;-74
2022/03/13 09:01:21;;;;;;;3.13;0.80;;;10.50;99.90;;;;;;5052718;28;20213;-73
2022/03/13 09:03:48;;;;;;;1.10;0.80;;;10.20;99.90;;;;;;5052997;28;20215;-73
2022/03/13 09:06:15;;;;;;;2.13;1.00;;;9.70;99.90;;;;;;5053809;28;20256;-77
2022/03/13 09:08:42;;;;;;;3.57;1.17;;;9.40;99.90;;;;;;5052813;28;20709;-73
2022/03/13 09:11:10;;;;;;;0.77;0.60;;;9.30;99.90;;;;;;5053091;28;20557;-79
2022/03/13 09:13:37;;;;;;;2.13;1.13;;;9.20;99.90;;;;;;5052422;28;20282;-73
2022/03/13 09:16:07;;;;;;;1.47;1.10;;;9.20;99.90;;;;;;5052839;28;20199;-74
2022/03/13 09:18:34;;;;;;;0.93;0.77;;;9.20;99.90;;;;;;5052683;28;20199;-75
2022/03/13 09:21:01;;;;;;;1.67;0.70;;;9.10;99.90;;;;;;5052913;28;20207;-75
2022/03/13 09:23:28;;;;;;;1.43;0.97;;;9.20;99.90;;;;;;5052450;28;20260;-73
2022/03/13 09:25:56;;;;;;;1.60;0.70;;;9.20;99.90;;;;;;5052643;28;20615;-72
2022/03/13 09:28:23;;;;;;;2.27;0.60;;;9.20;99.90;;;;;;5052214;28;20207;-73
2022/03/13 09:30:50;;;;;;;0.60;0.60;;;9.20;99.90;;;;;;5052792;28;20249;-74
2022/03/13 09:33:19;;;;;;;3.23;0.83;;;9.20;99.90;;;;;;5052905;28;20779;-73
2022/03/13 09:35:46;;;;;;;1.50;0.60;;;9.20;99.90;;;;;;5052802;28;20207;-75
2022/03/13 09:38:13;;;;;;;1.60;0.77;;;9.30;99.90;;;;;;5052900;28;20212;-76
2022/03/13 09:40:40;;;;;;;2.23;1.07;;;9.30;99.90;;;;;;5052162;28;20207;-73
2022/03/13 09:43:07;;;;;;;3.33;1.80;;;9.40;99.90;;;;;;5052373;28;20211;-74
2022/03/13 09:45:34;;;;;;;3.33;1.00;;;9.50;99.90;;;;;;5052005;28;20728;-72
2022/03/13 09:48:03;;;;;;;1.90;0.87;;;9.50;1.00;;;;;;5052590;28;20550;-74
2022/03/13 09:50:31;;;;;;;2.60;1.43;;;9.60;99.90;;;;;;5051945;28;20588;-72
2022/03/13 09:52:58;;;;;;;2.10;1.20;;;9.60;99.90;;;;;;5052353;28;20671;-72
2022/03/13 09:55:26;;;;;;;1.30;0.80;;;9.70;1.00;;;;;;5051825;28;20586;-72
2022/03/13 09:57:55;;;;;;;1.10;0.70;;;9.80;1.00;;;;;;5052080;28;20560;-71
2022/03/13 10:00:24;;;;;;;1.60;0.73;;;9.90;1.00;;;;;;5051801;28;20202;-77
2022/03/13 10:02:53;;;;;;;1.23;0.80;;;9.80;1.00;;;;;;5052190;28;20207;-74
2022/03/13 10:05:21;;;;;;;1.23;0.80;;;9.70;1.00;;;;;;5051616;28;20666;-73
2022/03/13 10:07:58;;;;;;;0.77;0.70;;;9.70;1.00;;;;;;5052252;28;20207;-81
2022/03/13 10:10:28;;;;;;;2.40;1.27;;;9.70;1.00;;;;;;5051281;28;20207;-73
2022/03/13 10:12:55;;;;;;;1.40;0.83;;;9.80;1.00;;;;;;5051850;28;20234;-72
2022/03/13 10:15:22;;;;;;;1.73;0.93;;;9.90;1.00;;;;;;5051278;28;20611;-72
2022/03/13 10:17:49;;;;;;;1.43;0.87;;;9.80;1.00;;;;;;5051634;28;20670;-73
2022/03/13 10:20:23;;;;;;;1.47;0.70;;;9.80;1.00;;;;;;5051358;28;20206;-72
2022/03/13 10:22:51;;;;;;;1.00;0.70;;;9.80;1.00;;;;;;5051663;28;20213;-72
2022/03/13 10:25:31;;;;;;;1.40;0.90;;;9.80;1.00;;;;;;5051702;28;20207;-72
2022/03/13 10:28:12;;;;;;;1.97;1.23;;;9.80;1.00;;;;;;5051244;28;20734;-73
2022/03/13 10:30:39;;;;;;;2.27;1.70;;;9.80;1.00;;;;;;5051070;28;20202;-72
2022/03/13 10:33:08;;;;;;;1.43;1.03;;;9.70;1.00;;;;;;5051421;28;20647;-72
2022/03/13 10:35:35;;;;;;;2.70;1.00;;;9.60;1.00;;;;;;5051168;28;20264;-72
2022/03/13 10:38:05;;;;;;;1.43;1.13;;;9.50;1.00;;;;;;5051238;28;20741;-74
2022/03/13 10:40:36;;;;;;;2.50;1.10;;;9.50;1.00;;;;;;5051237;28;20199;-71
2022/03/13 10:43:04;;;;;;;1.23;0.93;;;9.40;1.00;;;;;;5051055;28;20241;-72
2022/03/13 10:45:36;;;;;;;2.17;1.00;;;9.30;1.00;;;;;;5051099;28;20299;-73
2022/03/13 10:48:24;;;;;;;1.10;0.70;;;9.40;1.00;;;;;;5051188;28;20257;-73
2022/03/13 10:50:52;;;;;;;2.23;1.33;;;9.30;1.00;;;;;;5051119;28;20210;-74
2022/03/13 10:53:20;;;;;;;1.63;1.20;;;9.30;1.00;;;;;;5051002;28;20280;-72
2022/03/13 10:56:06;;;;;;;1.70;0.70;;;9.40;1.00;;;;;;5051414;28;20211;-72
2022/03/13 10:58:35;;;;;;;1.60;0.63;;;9.30;1.00;;;;;;5050484;28;20235;-73
2022/03/13 11:01:04;;;;;;;1.67;1.00;;;9.50;1.00;;;;;;5051269;28;20198;-76
2022/03/13 11:03:32;;;;;;;3.13;2.20;;;9.70;1.00;;;;;;5050637;28;20203;-74
2022/03/13 11:05:59;;;;;;;1.33;1.23;;;10.10;1.00;;;;;;5051073;28;20231;-75
2022/03/13 11:08:26;;;;;;;1.23;0.80;;;10.40;1.00;;;;;;5050844;28;20631;-74
2022/03/13 11:10:55;;;;;;;1.13;0.63;;;10.70;99.90;;;;;;5050818;28;20674;-78
2022/03/13 11:13:25;;;;;;;1.33;1.13;;;10.90;99.90;;;;;;5050743;28;20270;-76
2022/03/13 11:15:56;;;;;;;0.60;0.50;;;10.70;99.90;;;;;;5050842;28;20206;-79
2022/03/13 11:18:29;;;;;;;1.00;0.63;;;10.50;99.90;;;;;;5050513;28;20372;-72
2022/03/13 11:20:56;;;;;;;3.70;1.60;;;10.40;99.90;;;;;;5050841;28;20744;-76
2022/03/13 11:23:23;;;;;;;1.77;0.80;;;10.50;99.90;;;;;;5050639;28;20202;-72
2022/03/13 11:25:55;;;;;;;1.27;0.93;;;10.60;99.90;;;;;;5050574;28;20203;-77
2022/03/13 11:28:24;;;;;;;1.07;0.97;;;10.60;99.90;;;;;;5050298;28;20609;-72
2022/03/13 11:30:51;;;;;;;1.10;0.80;;;10.30;99.90;;;;;;5050810;28;20211;-79
2022/03/13 11:33:32;;;;;;;1.23;0.90;;;10.20;99.90;;;;;;5054253;28;20326;-74
2022/03/13 11:36:27;;;;;;;1.03;0.70;;;10.20;99.90;;;;;;5054959;28;20210;-75
2022/03/13 11:38:56;;;;;;;1.07;0.73;;;10.30;99.90;;;;;;5054596;28;20207;-73
2022/03/13 11:41:34;;;;;;;1.20;1.10;;;10.40;99.90;;;;;;5054331;28;20248;-75
2022/03/13 11:44:06;;;;;;;0.83;0.53;;;10.50;99.90;;;;;;5055041;28;20206;-74
2022/03/13 11:46:40;;;;;;;0.80;0.60;;;10.50;99.90;;;;;;5054296;28;20209;-72
2022/03/13 11:49:20;;;;;;;1.63;1.10;;;10.40;99.90;;;;;;5054574;28;20682;-72
2022/03/13 11:51:47;;;;;;;2.20;0.90;;;10.50;99.90;;;;;;5054743;28;20214;-72
2022/03/13 11:54:15;;;;;;;1.50;0.83;;;10.50;99.90;;;;;;5054839;28;20238;-72
2022/03/13 11:56:49;;;;;;;2.43;1.37;;;10.40;99.90;;;;;;5053790;28;20675;-72
2022/03/13 11:59:19;;;;;;;1.00;0.40;;;10.20;99.90;;;;;;5054554;28;20210;-72
2022/03/13 12:01:48;;;;;;;2.77;0.50;;;10.30;99.90;;;;;;5054430;28;20252;-72
2022/03/13 12:04:26;;;;;;;1.13;0.90;;;10.20;99.90;;;;;;5054535;28;20203;-74
2022/03/13 12:06:56;;;;;;;1.20;0.83;;;10.30;99.90;;;;;;5054444;28;20202;-72
2022/03/13 12:09:32;;;;;;;2.30;0.73;;;10.20;99.90;;;;;;5053638;28;20202;-72
2022/03/13 12:12:04;;;;;;;5.53;4.00;;;10.20;99.90;;;;;;5054000;28;20202;-72
2022/03/13 12:14:56;;;;;;;2.07;1.33;;;10.30;99.90;;;;;;5053410;28;20238;-72
2022/03/13 12:17:25;;;;;;;1.53;0.60;;;10.20;99.90;;;;;;5053678;28;20234;-71
2022/03/13 12:19:53;;;;;;;1.90;0.73;;;10.20;99.90;;;;;;5054194;28;20202;-72
2022/03/13 12:22:23;;;;;;;1.30;0.60;;;10.20;99.90;;;;;;5053758;28;20202;-72
2022/03/13 12:24:51;;;;;;;0.80;0.80;;;10.20;99.90;;;;;;5053884;28;20293;-75
2022/03/13 12:27:19;;;;;;;5.50;1.57;;;10.10;99.90;;;;;;5053626;28;20202;-73
2022/03/13 12:29:55;;;;;;;5.03;3.10;;;9.90;99.90;;;;;;5054338;28;20203;-75
2022/03/13 12:32:23;;;;;;;3.73;2.43;;;9.80;99.90;;;;;;5053249;28;20242;-73
2022/03/13 12:34:54;;;;;;;2.13;1.33;;;9.80;99.90;;;;;;5053773;28;20234;-76
2022/03/13 12:37:21;;;;;;;2.33;1.90;;;9.70;99.90;;;;;;5053454;28;20210;-76
2022/03/13 12:39:49;;;;;;;2.23;1.70;;;9.60;1.00;;;;;;5053543;28;20203;-73
2022/03/13 12:42:23;;;;;;;1.93;1.43;;;9.50;1.00;;;;;;5054097;28;20291;-79
2022/03/13 12:45:10;;;;;;;3.40;1.50;;;9.50;1.00;;;;;;5053986;28;20264;-77
2022/03/13 12:47:40;;;;;;;1.40;0.70;;;9.40;1.00;;;;;;5053471;28;20202;-79
2022/03/13 12:50:10;;;;;;;1.53;1.03;;;9.40;1.00;;;;;;5053638;28;20693;-80
2022/03/13 12:52:38;;;;;;;1.20;1.10;;;9.30;1.00;;;;;;5053206;28;20620;-80
2022/03/13 12:55:06;;;;;;;1.80;1.30;;;9.30;1.00;;;;;;5053939;28;20234;-82
2022/03/13 12:57:34;;;;;;;2.10;1.23;;;9.30;1.00;;;;;;5053786;28;20207;-79